createdAt,value
2022-10-23T00:01:46.644Z,13.40
2022-10-23T00:04:19.465Z,13.40
2022-10-23T00:06:47.748Z,13.40
2022-10-23T00:09:18.451Z,13.40
2022-10-23T00:11:50.950Z,13.30
2022-10-23T00:14:21.796Z,13.30
2022-10-23T00:16:48.564Z,13.30
2022-10-23T00:19:15.916Z,13.30
2022-10-23T00:21:43.238Z,13.20
2022-10-23T00:26:42.562Z,13.20
2022-10-23T00:29:10.792Z,13.10
2022-10-23T00:31:38.619Z,13.10
2022-10-23T00:34:08.321Z,13.10
2022-10-23T00:36:35.830Z,13.10
2022-10-23T00:39:03.053Z,13.10
2022-10-23T00:41:32.208Z,13.00
2022-10-23T00:44:24.121Z,13.00
2022-10-23T00:46:51.284Z,13.00
2022-10-23T00:49:18.166Z,13.00
2022-10-23T00:51:51.241Z,12.90
2022-10-23T00:54:25.631Z,12.90
2022-10-23T00:56:58.352Z,12.90
2022-10-23T00:59:25.570Z,12.80
2022-10-23T01:01:52.443Z,12.80
2022-10-23T01:04:20.020Z,12.80
2022-10-23T01:07:20.772Z,12.80
2022-10-23T01:10:04.438Z,12.80
2022-10-23T01:12:46.885Z,12.70
2022-10-23T01:15:23.391Z,12.70
2022-10-23T01:18:04.171Z,12.70
2022-10-23T01:20:51.476Z,12.70
2022-10-23T01:23:30.359Z,12.70
2022-10-23T01:26:15.687Z,12.70
2022-10-23T01:29:01.148Z,12.60
2022-10-23T01:31:46.743Z,12.60
2022-10-23T01:34:26.624Z,12.50
2022-10-23T01:36:55.690Z,12.50
2022-10-23T01:39:29.466Z,12.50
2022-10-23T01:42:15.190Z,12.50
2022-10-23T01:44:47.105Z,12.50
2022-10-23T01:47:18.066Z,12.40
2022-10-23T01:49:48.298Z,12.40
2022-10-23T01:52:18.184Z,12.40
2022-10-23T01:54:47.936Z,12.40
2022-10-23T01:57:19.012Z,12.30
2022-10-23T01:59:53.280Z,12.30
2022-10-23T02:02:23.971Z,12.30
2022-10-23T02:05:03.074Z,12.30
2022-10-23T02:07:30.691Z,12.30
2022-10-23T02:09:58.343Z,12.20
2022-10-23T02:13:12.443Z,12.20
2022-10-23T02:15:58.612Z,12.30
2022-10-23T02:18:35.092Z,12.20
2022-10-23T02:21:59.535Z,12.20
2022-10-23T02:25:13.633Z,12.20
2022-10-23T02:27:47.019Z,12.20
2022-10-23T02:30:18.003Z,12.10
2022-10-23T02:32:54.420Z,12.10
2022-10-23T02:35:24.654Z,12.00
2022-10-23T02:38:00.525Z,12.10
2022-10-23T02:40:40.562Z,12.00
2022-10-23T02:43:39.293Z,12.00
2022-10-23T02:46:50.751Z,12.00
2022-10-23T02:49:35.024Z,12.00
2022-10-23T02:52:35.270Z,12.00
2022-10-23T02:55:22.100Z,12.00
2022-10-23T02:57:54.842Z,12.00
2022-10-23T03:00:23.228Z,12.00
2022-10-23T03:03:03.137Z,11.90
2022-10-23T03:05:36.540Z,11.90
2022-10-23T03:08:09.613Z,11.80
2022-10-23T03:10:36.754Z,11.80
2022-10-23T03:13:03.998Z,11.80
2022-10-23T03:15:31.004Z,11.90
2022-10-23T03:17:57.764Z,11.80
2022-10-23T03:20:25.034Z,11.70
2022-10-23T03:22:51.865Z,11.70
2022-10-23T03:25:18.670Z,11.70
2022-10-23T03:27:45.639Z,11.70
2022-10-23T03:30:12.748Z,11.70
2022-10-23T03:32:39.738Z,11.70
2022-10-23T03:35:07.222Z,11.70
2022-10-23T03:37:34.386Z,11.70
2022-10-23T03:40:01.351Z,11.70
2022-10-23T03:42:28.392Z,11.60
2022-10-23T03:44:55.210Z,11.60
2022-10-23T03:47:22.077Z,11.60
2022-10-23T03:49:48.867Z,11.60
2022-10-23T03:52:15.817Z,11.60
2022-10-23T03:54:42.742Z,11.70
2022-10-23T03:57:09.584Z,11.60
2022-10-23T03:59:36.518Z,11.60
2022-10-23T04:02:03.533Z,11.60
2022-10-23T04:04:30.569Z,11.60
2022-10-23T04:06:57.354Z,11.60
2022-10-23T04:09:24.275Z,11.50
2022-10-23T04:11:51.080Z,11.60
2022-10-23T04:14:17.871Z,11.60
2022-10-23T04:16:44.747Z,11.60
2022-10-23T04:19:11.560Z,11.60
2022-10-23T04:21:38.371Z,11.60
2022-10-23T04:24:05.784Z,11.60
2022-10-23T04:26:32.611Z,11.60
2022-10-23T04:28:59.422Z,11.60
2022-10-23T04:31:26.541Z,11.60
2022-10-23T04:33:53.452Z,11.60
2022-10-23T04:36:20.369Z,11.60
2022-10-23T04:38:47.898Z,11.60
2022-10-23T04:41:14.754Z,11.60
2022-10-23T04:43:41.566Z,11.70
2022-10-23T04:46:08.357Z,11.70
2022-10-23T04:48:35.216Z,11.80
2022-10-23T04:51:05.785Z,11.70
2022-10-23T04:53:33.005Z,11.70
2022-10-23T04:56:01.058Z,11.70
2022-10-23T04:58:29.332Z,11.70
2022-10-23T05:00:57.495Z,11.70
2022-10-23T05:03:26.009Z,11.70
2022-10-23T05:05:55.597Z,11.70
2022-10-23T05:08:23.692Z,11.70
2022-10-23T05:10:51.387Z,11.70
2022-10-23T05:13:20.357Z,11.70
2022-10-23T05:15:52.002Z,11.70
2022-10-23T05:18:27.808Z,11.70
2022-10-23T05:21:01.204Z,11.70
2022-10-23T05:23:30.714Z,11.70
2022-10-23T05:25:57.537Z,11.70
2022-10-23T05:28:24.529Z,11.70
2022-10-23T05:30:51.611Z,11.70
2022-10-23T05:33:18.448Z,11.70
2022-10-23T05:35:45.528Z,11.80
2022-10-23T05:38:14.520Z,11.70
2022-10-23T05:40:41.369Z,11.70
2022-10-23T05:43:08.183Z,11.70
2022-10-23T05:45:35.099Z,11.70
2022-10-23T05:48:16.792Z,11.70
2022-10-23T05:50:49.196Z,11.70
2022-10-23T05:53:16.160Z,11.70
2022-10-23T05:55:42.945Z,11.70
2022-10-23T05:58:09.721Z,11.70
2022-10-23T06:00:36.486Z,11.70
2022-10-23T06:03:03.472Z,11.70
2022-10-23T06:05:30.309Z,11.70
2022-10-23T06:08:00.959Z,11.80
2022-10-23T06:10:28.318Z,11.60
2022-10-23T06:12:55.173Z,11.70
2022-10-23T06:15:21.948Z,11.70
2022-10-23T06:17:48.764Z,11.70
2022-10-23T06:20:15.704Z,11.70
2022-10-23T06:22:42.740Z,11.70
2022-10-23T06:25:09.815Z,11.80
2022-10-23T06:27:36.590Z,11.80
2022-10-23T06:30:04.453Z,11.80
2022-10-23T06:32:34.455Z,11.80
2022-10-23T06:35:01.249Z,11.90
2022-10-23T06:37:28.062Z,11.90
2022-10-23T06:39:54.959Z,11.90
2022-10-23T06:42:21.775Z,12.00
2022-10-23T06:44:48.690Z,12.00
2022-10-23T06:49:47.367Z,12.10
2022-10-23T06:52:18.435Z,12.10
2022-10-23T06:55:00.979Z,12.20
2022-10-23T06:57:27.791Z,12.30
2022-10-23T06:59:54.650Z,12.30
2022-10-23T07:02:21.447Z,12.40
2022-10-23T07:04:48.212Z,12.40
2022-10-23T07:07:15.038Z,12.60
2022-10-23T07:09:41.929Z,12.70
2022-10-23T07:12:08.817Z,12.70
2022-10-23T07:14:35.635Z,12.80
2022-10-23T07:17:02.435Z,12.90
2022-10-23T07:19:29.423Z,12.90
2022-10-23T07:21:56.302Z,13.00
2022-10-23T07:24:23.339Z,13.20
2022-10-23T07:29:17.989Z,13.50
2022-10-23T07:31:45.104Z,13.80
2022-10-23T07:34:11.950Z,14.10
2022-10-23T07:36:38.850Z,14.40
2022-10-23T07:39:05.708Z,14.80
2022-10-23T07:41:32.554Z,15.10
2022-10-23T07:43:59.393Z,15.40
2022-10-23T07:46:26.255Z,15.70
2022-10-23T07:48:53.057Z,15.90
2022-10-23T07:51:19.921Z,16.10
2022-10-23T07:53:46.996Z,16.30
2022-10-23T07:56:23.696Z,16.40
2022-10-23T07:58:54.141Z,16.60
2022-10-23T08:01:42.991Z,16.70
2022-10-23T08:04:10.845Z,17.00
2022-10-23T08:06:38.340Z,17.10
2022-10-23T08:09:06.808Z,17.30
2022-10-23T08:11:37.295Z,17.50
2022-10-23T08:14:06.484Z,17.60
2022-10-23T08:16:35.293Z,17.70
2022-10-23T08:19:03.801Z,17.90
2022-10-23T08:21:30.582Z,18.10
2022-10-23T08:23:59.336Z,18.20
2022-10-23T08:26:31.147Z,18.40
2022-10-23T08:29:01.341Z,18.70
2022-10-23T08:31:28.340Z,19.00
2022-10-23T08:33:55.144Z,19.30
2022-10-23T08:36:25.813Z,19.60
2022-10-23T08:38:55.880Z,20.00
2022-10-23T08:41:29.158Z,20.40
2022-10-23T08:44:09.726Z,20.70
2022-10-23T08:46:49.464Z,21.00
2022-10-23T08:50:02.888Z,21.40
2022-10-23T08:52:41.656Z,21.60
2022-10-23T08:55:39.236Z,21.70
2022-10-23T08:58:31.883Z,21.70
2022-10-23T09:00:59.007Z,21.60
2022-10-23T09:03:27.527Z,21.60
2022-10-23T09:06:28.891Z,21.50
2022-10-23T09:09:02.794Z,21.60
2022-10-23T09:11:47.716Z,21.60
2022-10-23T09:14:21.643Z,21.60
2022-10-23T09:20:21.714Z,21.80
2022-10-23T09:22:58.040Z,21.80
2022-10-23T09:25:32.057Z,21.80
2022-10-23T09:28:01.519Z,21.80
2022-10-23T09:30:38.301Z,21.80
2022-10-23T09:33:27.317Z,21.90
2022-10-23T09:36:04.731Z,21.80
2022-10-23T09:38:33.360Z,21.90
2022-10-23T09:41:26.348Z,21.90
2022-10-23T09:44:15.381Z,22.00
2022-10-23T09:46:53.489Z,22.10
2022-10-23T09:49:31.689Z,22.30
2022-10-23T09:52:03.625Z,22.40
2022-10-23T09:54:57.184Z,22.70
2022-10-23T09:57:43.305Z,23.00
2022-10-23T10:00:20.911Z,23.30
2022-10-23T10:03:19.196Z,23.70
2022-10-23T10:06:02.161Z,24.10
2022-10-23T10:08:36.462Z,24.60
2022-10-23T10:11:19.237Z,24.80
2022-10-23T10:14:19.929Z,25.00
2022-10-23T10:16:57.244Z,25.10
2022-10-23T10:19:53.904Z,25.10
2022-10-23T10:22:42.649Z,25.00
2022-10-23T10:25:35.703Z,24.80
2022-10-23T10:28:50.172Z,24.60
2022-10-23T10:31:40.458Z,24.50
2022-10-23T10:34:41.275Z,24.40
2022-10-23T10:37:32.961Z,24.30
2022-10-23T10:40:21.110Z,24.30
2022-10-23T10:43:13.961Z,24.20
2022-10-23T10:45:54.678Z,24.10
2022-10-23T10:49:01.165Z,24.10
2022-10-23T10:51:46.060Z,24.10
2022-10-23T10:55:02.958Z,24.10
2022-10-23T10:57:40.273Z,24.10
2022-10-23T11:00:15.842Z,24.00
2022-10-23T11:03:24.407Z,24.00
2022-10-23T11:05:54.930Z,24.00
2022-10-23T11:08:36.825Z,24.10
2022-10-23T11:11:35.994Z,24.30
2022-10-23T11:14:03.705Z,24.50
2022-10-23T11:16:37.480Z,24.60
2022-10-23T11:20:16.563Z,24.60
2022-10-23T11:22:57.742Z,24.60
2022-10-23T11:26:18.786Z,24.60
2022-10-23T11:29:34.288Z,24.50
2022-10-23T11:33:27.446Z,24.50
2022-10-23T11:36:37.952Z,24.30
2022-10-23T11:39:33.139Z,24.30
2022-10-23T11:42:15.163Z,24.20
2022-10-23T11:44:51.078Z,24.10
2022-10-23T11:48:17.421Z,24.10
2022-10-23T11:50:44.190Z,24.10
2022-10-23T11:53:32.800Z,24.10
2022-10-23T11:56:04.524Z,24.10
2022-10-23T11:58:52.241Z,24.10
2022-10-23T12:01:31.906Z,24.10
2022-10-23T12:04:14.256Z,24.10
2022-10-23T12:06:47.825Z,24.10
2022-10-23T12:09:29.596Z,24.10
2022-10-23T12:12:08.701Z,24.10
2022-10-23T12:14:47.696Z,24.10
2022-10-23T12:17:23.620Z,24.10
2022-10-23T12:20:25.512Z,24.10
2022-10-23T12:23:30.326Z,24.10
2022-10-23T12:26:50.544Z,24.10
2022-10-23T12:29:48.396Z,24.10
2022-10-23T12:32:45.172Z,24.30
2022-10-23T12:35:18.555Z,24.30
2022-10-23T12:38:22.643Z,24.40
2022-10-23T12:41:00.758Z,24.40
2022-10-23T12:43:36.404Z,24.40
2022-10-23T12:46:26.505Z,24.40
2022-10-23T12:48:56.785Z,24.40
2022-10-23T12:51:33.333Z,24.40
2022-10-23T12:54:02.479Z,24.50
2022-10-23T12:56:36.662Z,24.50
2022-10-23T12:59:14.508Z,24.50
2022-10-23T13:01:43.337Z,24.50
2022-10-23T13:04:34.744Z,24.50
2022-10-23T13:07:03.721Z,24.50
2022-10-23T13:09:39.359Z,24.50
2022-10-23T13:12:08.851Z,24.60
2022-10-23T13:14:44.420Z,24.60
2022-10-23T13:17:12.283Z,24.60
2022-10-23T13:19:39.233Z,24.60
2022-10-23T13:22:21.427Z,24.70
2022-10-23T13:24:48.573Z,24.80
2022-10-23T13:27:30.654Z,24.80
2022-10-23T13:29:57.505Z,24.90
2022-10-23T13:32:29.446Z,24.90
2022-10-23T13:35:21.008Z,25.00
2022-10-23T13:37:49.110Z,25.00
2022-10-23T13:40:27.071Z,25.00
2022-10-23T13:42:56.175Z,25.10
2022-10-23T13:45:25.955Z,25.10
2022-10-23T13:47:53.411Z,25.10
2022-10-23T13:50:20.664Z,25.10
2022-10-23T13:52:47.510Z,25.10
2022-10-23T13:55:25.072Z,25.10
2022-10-23T13:57:52.234Z,25.10
2022-10-23T14:00:19.246Z,25.20
2022-10-23T14:02:46.138Z,25.10
2022-10-23T14:05:13.331Z,25.20
2022-10-23T14:07:40.269Z,25.20
2022-10-23T14:10:07.560Z,25.20
2022-10-23T14:12:44.850Z,25.20
2022-10-23T14:15:12.387Z,25.20
2022-10-23T14:17:39.480Z,25.30
2022-10-23T14:20:07.181Z,25.40
2022-10-23T14:22:34.047Z,25.60
2022-10-23T14:25:00.890Z,25.70
2022-10-23T14:27:28.035Z,25.80
2022-10-23T14:29:54.868Z,25.80
2022-10-23T14:32:21.806Z,25.70
2022-10-23T14:34:55.202Z,25.70
2022-10-23T14:37:22.575Z,25.60
2022-10-23T14:39:50.323Z,25.50
2022-10-23T14:42:17.842Z,25.40
2022-10-23T14:44:44.991Z,25.30
2022-10-23T14:47:12.085Z,25.20
2022-10-23T14:49:40.290Z,25.00
2022-10-23T14:52:08.329Z,24.80
2022-10-23T14:54:36.405Z,24.70
2022-10-23T14:57:03.890Z,24.60
2022-10-23T14:59:30.863Z,24.50
2022-10-23T15:01:57.664Z,24.30
2022-10-23T15:04:24.562Z,24.10
2022-10-23T15:06:52.443Z,24.00
2022-10-23T15:09:20.187Z,23.90
2022-10-23T15:11:48.156Z,23.80
2022-10-23T15:14:15.086Z,23.60
2022-10-23T15:16:42.069Z,23.50
2022-10-23T15:19:18.175Z,23.40
2022-10-23T15:21:49.381Z,23.30
2022-10-23T15:24:17.994Z,23.20
2022-10-23T15:26:45.287Z,23.00
2022-10-23T15:29:14.922Z,22.90
2022-10-23T15:31:47.221Z,22.80
2022-10-23T15:34:19.500Z,22.70
2022-10-23T15:36:47.827Z,22.50
2022-10-23T15:39:20.219Z,22.50
2022-10-23T15:41:49.939Z,22.40
2022-10-23T15:44:19.548Z,22.30
2022-10-23T15:46:46.728Z,22.20
2022-10-23T15:49:13.666Z,22.00
2022-10-23T15:51:42.445Z,22.00
2022-10-23T15:54:18.791Z,21.80
2022-10-23T15:56:49.325Z,21.70
2022-10-23T15:59:18.903Z,21.70
2022-10-23T16:01:46.225Z,21.60
2022-10-23T16:04:13.401Z,21.50
2022-10-23T16:06:40.493Z,21.40
2022-10-23T16:09:07.374Z,21.30
2022-10-23T16:11:37.580Z,21.20
2022-10-23T16:14:05.575Z,21.10
2022-10-23T16:16:33.738Z,21.00
2022-10-23T16:19:03.718Z,21.00
2022-10-23T16:21:35.328Z,20.90
2022-10-23T16:24:05.599Z,20.80
2022-10-23T16:26:32.780Z,20.70
2022-10-23T16:29:03.250Z,20.60
2022-10-23T16:31:30.399Z,20.60
2022-10-23T16:34:00.251Z,20.50
2022-10-23T16:36:27.795Z,20.40
2022-10-23T16:38:54.680Z,20.40
2022-10-23T16:41:21.555Z,20.30
2022-10-23T16:43:48.612Z,20.20
2022-10-23T16:46:19.268Z,20.10
2022-10-23T16:48:47.221Z,20.10
2022-10-23T16:51:21.507Z,20.00
2022-10-23T16:53:49.148Z,20.00
2022-10-23T16:56:21.311Z,19.90
2022-10-23T16:58:48.691Z,19.90
2022-10-23T17:01:22.873Z,19.80
2022-10-23T17:03:52.458Z,19.70
2022-10-23T17:06:32.017Z,19.70
2022-10-23T17:09:01.604Z,19.70
2022-10-23T17:11:35.313Z,19.60
2022-10-23T17:14:11.211Z,19.50
2022-10-23T17:16:47.806Z,19.50
2022-10-23T17:19:33.131Z,19.50
2022-10-23T17:22:10.308Z,19.40
2022-10-23T17:24:39.895Z,19.40
2022-10-23T17:27:06.904Z,19.30
2022-10-23T17:29:34.257Z,19.30
2022-10-23T17:32:01.281Z,19.30
2022-10-23T17:34:28.352Z,19.20
2022-10-23T17:36:56.290Z,19.10
2022-10-23T17:39:27.499Z,19.10
2022-10-23T17:41:55.490Z,19.10
2022-10-23T17:44:22.348Z,19.10
2022-10-23T17:46:54.483Z,19.00
2022-10-23T17:49:22.852Z,19.00
2022-10-23T17:51:57.740Z,19.00
2022-10-23T17:54:27.380Z,19.00
2022-10-23T17:56:54.872Z,19.00
2022-10-23T17:59:22.417Z,19.00
2022-10-23T18:01:50.035Z,19.00
2022-10-23T18:04:19.154Z,19.00
2022-10-23T18:06:53.174Z,19.00
2022-10-23T18:09:22.353Z,19.00
2022-10-23T18:11:50.362Z,19.00
2022-10-23T18:14:20.220Z,18.90
2022-10-23T18:16:47.693Z,18.90
2022-10-23T18:19:19.362Z,18.90
2022-10-23T18:21:47.651Z,18.90
2022-10-23T18:24:15.657Z,18.80
2022-10-23T18:26:43.397Z,18.90
2022-10-23T18:29:17.246Z,18.90
2022-10-23T18:31:45.353Z,18.90
2022-10-23T18:34:24.727Z,18.80
2022-10-23T18:36:54.100Z,18.90
2022-10-23T18:39:25.110Z,18.90
2022-10-23T18:41:56.230Z,18.80
2022-10-23T18:44:26.848Z,18.80
2022-10-23T18:46:56.941Z,18.80
2022-10-23T18:49:24.069Z,18.80
2022-10-23T18:51:51.228Z,18.80
2022-10-23T18:54:21.250Z,18.80
2022-10-23T18:56:49.163Z,18.80
2022-10-23T18:59:20.650Z,18.80
2022-10-23T19:01:48.168Z,18.80
2022-10-23T19:04:17.766Z,18.70
2022-10-23T19:06:46.790Z,18.70
2022-10-23T19:09:14.679Z,18.70
2022-10-23T19:11:43.066Z,18.70
2022-10-23T19:14:10.262Z,18.60
2022-10-23T19:17:10.810Z,18.60
2022-10-23T19:19:45.813Z,18.60
2022-10-23T19:22:15.212Z,18.60
2022-10-23T19:25:12.775Z,18.50
2022-10-23T19:27:41.912Z,18.50
2022-10-23T19:30:13.524Z,18.40
2022-10-23T19:32:42.311Z,18.30
2022-10-23T19:35:11.679Z,18.30
2022-10-23T19:37:38.673Z,18.30
2022-10-23T19:40:07.865Z,18.20
2022-10-23T19:42:39.844Z,18.20
2022-10-23T19:45:11.171Z,18.20
2022-10-23T19:47:38.799Z,18.20
2022-10-23T19:50:08.359Z,18.10
2022-10-23T19:52:35.765Z,18.10
2022-10-23T19:55:04.635Z,18.10
2022-10-23T19:57:36.974Z,18.10
2022-10-23T20:00:07.564Z,18.20
2022-10-23T20:05:09.779Z,18.20
2022-10-23T20:07:37.184Z,18.20
2022-10-23T20:10:06.396Z,18.20
2022-10-23T20:12:33.695Z,18.30
2022-10-23T20:15:00.678Z,18.30
2022-10-23T20:17:27.514Z,18.30
2022-10-23T20:19:54.330Z,18.30
2022-10-23T20:22:21.344Z,18.30
2022-10-23T20:24:48.312Z,18.30
2022-10-23T20:27:15.361Z,18.40
2022-10-23T20:29:42.919Z,18.40
2022-10-23T20:32:11.562Z,18.50
2022-10-23T20:34:39.901Z,18.50
2022-10-23T20:37:06.723Z,18.50
2022-10-23T20:39:35.676Z,18.50
2022-10-23T20:42:03.810Z,18.60
2022-10-23T20:44:31.038Z,18.60
2022-10-23T20:46:58.055Z,18.60
2022-10-23T20:49:24.987Z,18.70
2022-10-23T20:51:56.180Z,18.70
2022-10-23T20:54:25.974Z,18.70
2022-10-23T20:56:52.897Z,18.80
2022-10-23T20:59:19.832Z,18.80
2022-10-23T21:01:53.258Z,18.90
2022-10-23T21:04:27.670Z,18.90
2022-10-23T21:07:09.618Z,19.00
2022-10-23T21:09:37.945Z,19.00
2022-10-23T21:12:06.628Z,19.20
2022-10-23T21:14:33.871Z,19.20
2022-10-23T21:17:00.824Z,19.30
2022-10-23T21:19:27.792Z,19.30
2022-10-23T21:21:55.426Z,19.40
2022-10-23T21:24:24.003Z,19.40
2022-10-23T21:26:50.887Z,19.40
2022-10-23T21:29:19.327Z,19.40
2022-10-23T21:31:56.280Z,19.40
2022-10-23T21:34:25.061Z,19.40
2022-10-23T21:39:40.853Z,19.40
2022-10-23T21:42:08.452Z,19.30
2022-10-23T21:44:35.608Z,19.30
2022-10-23T21:47:02.428Z,19.30
2022-10-23T21:49:29.235Z,19.30
2022-10-23T21:51:56.077Z,19.20
2022-10-23T21:54:22.881Z,19.30
2022-10-23T21:56:53.395Z,19.30
2022-10-23T21:59:25.233Z,19.30
2022-10-23T22:01:56.622Z,19.30
2022-10-23T22:04:23.607Z,19.40
2022-10-23T22:06:50.667Z,19.40
2022-10-23T22:09:20.056Z,19.50
2022-10-23T22:11:50.139Z,19.60
2022-10-23T22:14:17.415Z,19.60
2022-10-23T22:16:44.418Z,19.70
2022-10-23T22:19:14.740Z,19.80
2022-10-23T22:21:42.135Z,19.80
2022-10-23T22:24:09.607Z,19.90
2022-10-23T22:26:50.389Z,20.00
2022-10-23T22:29:20.721Z,20.00
2022-10-23T22:31:49.838Z,20.10
2022-10-23T22:37:16.407Z,20.10
2022-10-23T22:39:43.400Z,20.10
2022-10-23T22:42:10.279Z,20.10
2022-10-23T22:44:37.144Z,20.10
2022-10-23T22:47:04.200Z,20.20
2022-10-23T22:49:31.000Z,20.20
2022-10-23T22:51:57.804Z,20.20
2022-10-23T22:54:24.725Z,20.30
2022-10-23T22:56:51.578Z,20.30
2022-10-23T22:59:18.407Z,20.30
2022-10-23T23:01:48.030Z,20.30
2022-10-23T23:04:37.679Z,20.40
2022-10-23T23:07:06.596Z,20.30
2022-10-23T23:09:39.944Z,20.40
2022-10-23T23:12:09.567Z,20.40
2022-10-23T23:14:37.788Z,20.40
2022-10-23T23:17:06.041Z,20.40
2022-10-23T23:19:32.997Z,20.50
2022-10-23T23:22:00.695Z,20.50
2022-10-23T23:24:27.668Z,20.50
2022-10-23T23:26:54.546Z,20.50
2022-10-23T23:29:21.729Z,20.50
2022-10-23T23:31:48.653Z,20.50
2022-10-23T23:34:15.491Z,20.50
2022-10-23T23:36:42.249Z,20.60
2022-10-23T23:39:09.933Z,20.60
2022-10-23T23:41:37.542Z,20.60
2022-10-23T23:44:04.746Z,20.70
2022-10-23T23:46:31.586Z,20.60
2022-10-23T23:48:58.470Z,20.60
2022-10-23T23:51:26.463Z,20.60
2022-10-23T23:53:53.945Z,20.60
2022-10-23T23:56:21.718Z,20.60
2022-10-23T23:58:49.181Z,20.60
